ENHN weather

Elverum Starmoen Airport
Hedmark, Norway

Public forecast

Using degrees Celsius for public forecast. Weather courtesy of forecast.io.

Closest aviation weather report (METAR) to Elverum Starmoen Airport

Closest report is Oslo Gardermoen Airport, 44.5 nm (82.5 km) SSW. Retrieved 2019/11/21 07:20 UTC (0 seconds ago):

ENGM 210720Z 03010KT 8000 -DZ FEW003 OVC008 02/02 Q1022 TEMPO 4000 -RA BR

Closest aviation forecast (TAF) to Elverum Starmoen Airport

Closest forecast is Oslo Gardermoen Airport, 44.5 nm (82.5 km) SSW. Retrieved 2019/11/21 06:57 UTC (6 minutes ago):

TAF ENGM 210500Z 2106/2206 03010KT 7000 -RA SCT005 BKN010 PROB40 2106/2112 2000 DZRA BR OVC002 TEMPO 2112/2120 4000 RA BR BKN003 PROB40 2120/2206 VRB05KT 1500 BCFG BKN001